createdAt,value
2016-05-30T00:00:38.138Z,0
2016-05-30T00:01:38.313Z,0
2016-05-30T00:02:38.143Z,0
2016-05-30T00:03:38.302Z,0
2016-05-30T00:04:38.289Z,0
2016-05-30T00:05:38.292Z,0
2016-05-30T00:06:38.732Z,0
2016-05-30T00:07:38.157Z,0
2016-05-30T00:08:38.143Z,0
2016-05-30T00:09:38.427Z,0
2016-05-30T00:10:38.321Z,0
2016-05-30T00:11:38.308Z,0
2016-05-30T00:12:38.326Z,0
2016-05-30T00:13:38.157Z,0
2016-05-30T00:14:38.316Z,0
2016-05-30T00:15:38.318Z,0
2016-05-30T00:16:38.368Z,0
2016-05-30T00:17:38.215Z,0
2016-05-30T00:18:38.217Z,0
2016-05-30T00:19:38.173Z,0
2016-05-30T00:20:38.317Z,0
2016-05-30T00:21:38.475Z,0
2016-05-30T00:22:38.322Z,0
2016-05-30T00:23:38.168Z,0
2016-05-30T00:24:38.327Z,0
2016-05-30T00:25:38.314Z,0
2016-05-30T00:26:38.316Z,0
2016-05-30T00:27:38.163Z,0
2016-05-30T00:28:38.339Z,0
2016-05-30T00:29:38.309Z,0
2016-05-30T00:30:38.344Z,0
2016-05-30T00:31:38.314Z,0
2016-05-30T00:32:38.317Z,0
2016-05-30T00:33:38.319Z,0
2016-05-30T00:34:39.919Z,0
2016-05-30T00:35:39.216Z,0
2016-05-30T00:36:38.860Z,0
2016-05-30T00:37:39.425Z,0
2016-05-30T00:38:38.021Z,0
2016-05-30T00:39:39.023Z,0
2016-05-30T00:40:38.324Z,0
2016-05-30T00:41:38.530Z,0
2016-05-30T00:42:38.360Z,0
2016-05-30T00:43:38.176Z,0
2016-05-30T00:44:39.178Z,0
2016-05-30T00:45:40.074Z,0
2016-05-30T00:46:38.184Z,0
2016-05-30T00:47:39.593Z,0
2016-05-30T00:48:38.923Z,0
2016-05-30T00:49:39.004Z,0
2016-05-30T00:50:56.150Z,0
2016-05-30T00:51:40.200Z,0
2016-05-30T00:52:39.028Z,0
2016-05-30T00:53:39.077Z,0
2016-05-30T00:54:38.783Z,0
2016-05-30T00:55:38.317Z,0
2016-05-30T00:56:38.742Z,0
2016-05-30T00:57:38.181Z,0
2016-05-30T00:58:38.262Z,0
2016-05-30T00:59:38.672Z,0
2016-05-30T01:00:39.830Z,0
2016-05-30T01:01:38.333Z,0
2016-05-30T01:02:38.179Z,0
2016-05-30T01:03:39.072Z,0
2016-05-30T01:04:38.638Z,0
2016-05-30T01:05:38.344Z,0
2016-05-30T01:06:38.987Z,0
2016-05-30T01:07:38.271Z,0
2016-05-30T01:08:38.336Z,0
2016-05-30T01:09:38.182Z,0
2016-05-30T01:10:38.185Z,0
2016-05-30T01:11:38.187Z,0
2016-05-30T01:12:38.346Z,0
2016-05-30T01:13:38.177Z,0
2016-05-30T01:14:38.180Z,0
2016-05-30T01:15:38.354Z,0
2016-05-30T01:16:38.046Z,0
2016-05-30T01:17:38.345Z,0
2016-05-30T01:18:38.348Z,0
2016-05-30T01:19:38.350Z,0
2016-05-30T01:20:38.337Z,0
2016-05-30T01:21:38.168Z,0
2016-05-30T01:22:38.374Z,0
2016-05-30T01:23:38.361Z,0
2016-05-30T01:24:38.395Z,0
2016-05-30T01:25:38.210Z,0
2016-05-30T01:26:38.354Z,0
2016-05-30T01:27:38.356Z,0
2016-05-30T01:28:38.343Z,0
2016-05-30T01:29:38.345Z,0
2016-05-30T01:30:38.348Z,0
2016-05-30T01:31:38.351Z,0
2016-05-30T01:32:38.353Z,0
2016-05-30T01:33:38.044Z,0
2016-05-30T01:34:38.343Z,0
2016-05-30T01:35:38.347Z,0
2016-05-30T01:36:38.161Z,0
2016-05-30T01:37:38.742Z,0
2016-05-30T01:38:38.354Z,0
2016-05-30T01:39:38.044Z,0
2016-05-30T01:40:38.360Z,0
2016-05-30T01:41:38.347Z,0
2016-05-30T01:42:38.193Z,0
2016-05-30T01:43:38.352Z,0
2016-05-30T01:44:38.355Z,0
2016-05-30T01:45:38.357Z,0
2016-05-30T01:46:38.345Z,0
2016-05-30T01:47:38.206Z,0
2016-05-30T01:48:38.350Z,0
2016-05-30T01:49:38.353Z,0
2016-05-30T01:50:38.356Z,0
2016-05-30T01:51:39.045Z,0
2016-05-30T01:52:38.048Z,0
2016-05-30T01:54:06.725Z,0
2016-05-30T01:54:41.412Z,0
2016-05-30T01:55:40.009Z,0
2016-05-30T01:56:38.667Z,0
2016-05-30T01:57:39.202Z,0
2016-05-30T01:58:38.705Z,0
2016-05-30T01:59:38.364Z,0
2016-05-30T02:00:38.194Z,0
2016-05-30T02:01:38.354Z,0
2016-05-30T02:02:38.356Z,0
2016-05-30T02:03:41.108Z,0
2016-05-30T02:04:38.674Z,0
2016-05-30T02:05:39.489Z,0
2016-05-30T02:06:39.258Z,0
2016-05-30T02:07:38.558Z,0
2016-05-30T02:08:39.842Z,0
2016-05-30T02:09:38.765Z,0
2016-05-30T02:10:38.816Z,0
2016-05-30T02:11:39.755Z,0
2016-05-30T02:12:38.352Z,0
2016-05-30T02:13:38.261Z,0
2016-05-30T02:14:38.373Z,0
2016-05-30T02:15:38.360Z,0
2016-05-30T02:16:38.566Z,0
2016-05-30T02:17:38.210Z,0
2016-05-30T02:18:39.212Z,0
2016-05-30T02:19:40.418Z,0
2016-05-30T02:20:38.202Z,0
2016-05-30T02:21:38.298Z,0
2016-05-30T02:22:39.082Z,0
2016-05-30T02:23:38.428Z,0
2016-05-30T02:24:38.822Z,0
2016-05-30T02:25:38.356Z,0
2016-05-30T02:26:38.499Z,0
2016-05-30T02:27:38.361Z,0
2016-05-30T02:28:38.348Z,0
2016-05-30T02:29:38.367Z,0
2016-05-30T02:30:38.197Z,0
2016-05-30T02:31:38.356Z,0
2016-05-30T02:32:38.358Z,0
2016-05-30T02:33:38.362Z,0
2016-05-30T02:34:38.395Z,0
2016-05-30T02:35:38.367Z,0
2016-05-30T02:36:38.447Z,0
2016-05-30T02:37:38.763Z,0
2016-05-30T02:38:38.375Z,0
2016-05-30T02:39:38.375Z,5
2016-05-30T02:40:38.405Z,5
2016-05-30T02:41:38.434Z,5
2016-05-30T02:42:38.307Z,5
2016-05-30T02:43:38.322Z,5
2016-05-30T02:44:38.499Z,5
2016-05-30T02:45:38.512Z,5
2016-05-30T02:46:38.508Z,5
2016-05-30T02:47:38.536Z,5
2016-05-30T02:48:38.548Z,10
2016-05-30T02:49:38.558Z,10
2016-05-30T02:50:38.391Z,10
2016-05-30T02:51:39.414Z,10
2016-05-30T02:52:38.420Z,10
2016-05-30T02:53:38.410Z,10
2016-05-30T02:54:38.556Z,15
2016-05-30T02:55:38.560Z,15
2016-05-30T02:56:38.564Z,15
2016-05-30T02:57:38.568Z,15
2016-05-30T02:58:38.478Z,15
2016-05-30T02:59:38.575Z,20
2016-05-30T03:00:38.579Z,20
2016-05-30T03:01:38.411Z,20
2016-05-30T03:02:38.569Z,20
2016-05-30T03:03:38.261Z,25
2016-05-30T03:04:38.435Z,25
2016-05-30T03:05:38.407Z,25
2016-05-30T03:06:38.676Z,25
2016-05-30T03:07:39.115Z,30
2016-05-30T03:08:38.586Z,30
2016-05-30T03:09:38.574Z,30
2016-05-30T03:10:38.437Z,30
2016-05-30T03:11:38.423Z,30
2016-05-30T03:12:41.161Z,35
2016-05-30T03:13:40.459Z,35
2016-05-30T03:14:39.681Z,35
2016-05-30T03:15:38.981Z,35
2016-05-30T03:16:38.109Z,35
2016-05-30T03:17:39.314Z,40
2016-05-30T03:18:38.427Z,40
2016-05-30T03:19:38.413Z,40
2016-05-30T03:20:38.588Z,45
2016-05-30T03:21:38.591Z,45
2016-05-30T03:22:41.390Z,50
2016-05-30T03:23:39.377Z,50
2016-05-30T03:24:39.911Z,55
2016-05-30T03:25:39.571Z,60
2016-05-30T03:26:39.010Z,65
2016-05-30T03:27:40.246Z,65
2016-05-30T03:28:40.188Z,65
2016-05-30T03:29:39.456Z,70
2016-05-30T03:30:38.662Z,70
2016-05-30T03:31:39.226Z,75
2016-05-30T03:32:38.917Z,75
2016-05-30T03:33:38.842Z,80
2016-05-30T03:34:39.422Z,80
2016-05-30T03:35:38.425Z,85
2016-05-30T03:36:38.850Z,90
2016-05-30T03:37:40.649Z,90
2016-05-30T03:38:38.527Z,95
2016-05-30T03:39:39.187Z,100
2016-05-30T03:40:39.516Z,95
2016-05-30T03:41:38.785Z,100
2016-05-30T03:42:38.632Z,100
2016-05-30T03:43:38.822Z,105
2016-05-30T03:44:39.122Z,110
2016-05-30T03:45:38.593Z,110
2016-05-30T03:46:38.595Z,115
2016-05-30T03:47:38.473Z,120
2016-05-30T03:48:38.569Z,125
2016-05-30T03:49:38.572Z,135
2016-05-30T03:50:38.575Z,135
2016-05-30T03:51:39.266Z,140
2016-05-30T03:52:38.924Z,145
2016-05-30T03:53:38.583Z,145
2016-05-30T03:54:38.601Z,150
2016-05-30T03:55:38.588Z,145
2016-05-30T03:56:38.575Z,140
2016-05-30T03:57:38.594Z,140
2016-05-30T03:58:38.596Z,135
2016-05-30T03:59:38.599Z,135
2016-05-30T04:00:38.602Z,125
2016-05-30T04:01:38.588Z,125
2016-05-30T04:02:38.591Z,120
2016-05-30T04:03:38.453Z,115
2016-05-30T04:04:38.441Z,120
2016-05-30T04:05:38.615Z,120
2016-05-30T04:06:39.009Z,125
2016-05-30T04:07:39.167Z,130
2016-05-30T04:08:38.436Z,130
2016-05-30T04:09:38.610Z,135
2016-05-30T04:10:38.598Z,140
2016-05-30T04:11:38.460Z,150
2016-05-30T04:12:38.447Z,160
2016-05-30T04:13:38.449Z,165
2016-05-30T04:14:38.453Z,165
2016-05-30T04:15:38.455Z,170
2016-05-30T04:16:38.614Z,175
2016-05-30T04:17:38.617Z,175
2016-05-30T04:18:38.619Z,175
2016-05-30T04:19:38.325Z,175
2016-05-30T04:20:38.609Z,175
2016-05-30T04:21:39.596Z,175
2016-05-30T04:22:38.630Z,175
2016-05-30T04:23:38.633Z,175
2016-05-30T04:24:38.635Z,180
2016-05-30T04:25:38.482Z,185
2016-05-30T04:26:38.468Z,190
2016-05-30T04:27:38.643Z,195
2016-05-30T04:28:38.630Z,200
2016-05-30T04:29:38.335Z,215
2016-05-30T04:30:38.635Z,230
2016-05-30T04:31:41.982Z,245
2016-05-30T04:32:38.641Z,260
2016-05-30T04:33:38.643Z,275
2016-05-30T04:35:06.898Z,270
2016-05-30T04:35:38.476Z,280
2016-05-30T04:36:39.745Z,280
2016-05-30T04:37:38.655Z,260
2016-05-30T04:38:39.360Z,255
2016-05-30T04:39:38.394Z,245
2016-05-30T04:40:38.647Z,235
2016-05-30T04:41:53.589Z,260
2016-05-30T04:42:38.902Z,235
2016-05-30T04:43:39.515Z,275
2016-05-30T04:44:39.517Z,235
2016-05-30T04:45:39.300Z,245
2016-05-30T04:47:40.853Z,325
2016-05-30T04:48:40.497Z,340
2016-05-30T04:49:39.468Z,360
2016-05-30T04:50:39.799Z,295
2016-05-30T04:51:39.786Z,345
2016-05-30T04:52:38.695Z,410
2016-05-30T04:53:38.697Z,430
2016-05-30T04:54:38.700Z,435
2016-05-30T04:55:38.531Z,295
2016-05-30T04:56:41.752Z,440
2016-05-30T04:57:39.771Z,430
2016-05-30T04:58:38.711Z,430
2016-05-30T04:59:38.713Z,395
2016-05-30T05:00:39.435Z,225
2016-05-30T05:01:38.829Z,240
2016-05-30T05:02:38.721Z,255
2016-05-30T05:03:38.896Z,295
2016-05-30T05:04:38.571Z,315
2016-05-30T05:05:38.417Z,345
2016-05-30T05:06:40.467Z,380
2016-05-30T05:07:38.766Z,635
2016-05-30T05:08:38.737Z,755
2016-05-30T05:09:38.756Z,665
2016-05-30T05:10:38.743Z,785
2016-05-30T05:11:38.448Z,785
2016-05-30T05:12:38.467Z,790
2016-05-30T05:13:38.626Z,805
2016-05-30T05:14:38.769Z,820
2016-05-30T05:15:38.616Z,835
2016-05-30T05:16:38.790Z,835
2016-05-30T05:17:38.793Z,840
2016-05-30T05:18:38.795Z,840
2016-05-30T05:19:38.814Z,845
2016-05-30T05:20:38.801Z,790
2016-05-30T05:21:39.336Z,705
2016-05-30T05:22:39.057Z,630
2016-05-30T05:23:38.669Z,550
2016-05-30T05:24:38.687Z,425
2016-05-30T05:25:38.689Z,455
2016-05-30T05:26:38.552Z,505
2016-05-30T05:27:38.867Z,720
2016-05-30T05:28:38.870Z,585
2016-05-30T05:29:38.716Z,425
2016-05-30T05:30:38.421Z,375
2016-05-30T05:31:38.738Z,375
2016-05-30T05:32:38.740Z,390
2016-05-30T05:33:38.930Z,405
2016-05-30T05:34:38.620Z,460
2016-05-30T05:35:38.763Z,550
2016-05-30T05:36:38.813Z,675
2016-05-30T05:37:38.768Z,720
2016-05-30T05:38:38.943Z,940
2016-05-30T05:39:38.852Z,1020
2016-05-30T05:40:38.854Z,920
2016-05-30T05:41:38.812Z,890
2016-05-30T05:42:38.829Z,1085
2016-05-30T05:43:38.832Z,1110
2016-05-30T05:44:38.990Z,1090
2016-05-30T05:45:38.837Z,1105
2016-05-30T05:46:39.011Z,1105
2016-05-30T05:47:38.874Z,1120
2016-05-30T05:48:38.861Z,1130
2016-05-30T05:49:38.879Z,1180
2016-05-30T05:50:43.242Z,1235
2016-05-30T05:51:40.416Z,1230
2016-05-30T05:52:39.933Z,705
2016-05-30T05:53:39.124Z,775
2016-05-30T05:54:40.190Z,1140
2016-05-30T05:55:39.552Z,915
2016-05-30T05:56:38.945Z,1240
2016-05-30T05:57:39.322Z,1285
2016-05-30T05:58:39.138Z,1245
2016-05-30T05:59:39.156Z,1220
2016-05-30T06:00:42.613Z,1225
2016-05-30T06:01:40.755Z,1255
2016-05-30T06:02:39.180Z,1300
2016-05-30T06:03:39.074Z,1300
2016-05-30T06:04:39.185Z,1290
2016-05-30T06:05:39.141Z,1330
2016-05-30T06:06:42.191Z,1350
2016-05-30T06:07:39.724Z,1325
2016-05-30T06:08:40.493Z,1315
2016-05-30T06:09:39.668Z,1345
2016-05-30T06:10:39.545Z,1375
2016-05-30T06:11:39.579Z,1370
2016-05-30T06:12:39.348Z,1355
2016-05-30T06:13:39.147Z,1380
2016-05-30T06:14:39.196Z,1430
2016-05-30T06:15:40.590Z,1485
2016-05-30T06:16:39.342Z,1430
2016-05-30T06:17:40.001Z,1320
2016-05-30T06:18:40.426Z,1330
2016-05-30T06:19:40.366Z,1355
2016-05-30T06:20:39.509Z,1400
2016-05-30T06:21:40.215Z,1395
2016-05-30T06:22:39.967Z,1465
2016-05-30T06:23:39.470Z,1410
2016-05-30T06:24:39.458Z,1495
2016-05-30T06:25:39.304Z,1575
2016-05-30T06:26:39.478Z,1560
2016-05-30T06:27:39.481Z,1580
2016-05-30T06:28:39.499Z,1615
2016-05-30T06:29:39.361Z,1620
2016-05-30T06:30:40.818Z,1610
2016-05-30T06:31:39.398Z,1615
2016-05-30T06:32:39.557Z,1640
2016-05-30T06:33:39.576Z,1635
2016-05-30T06:34:39.282Z,1625
2016-05-30T06:35:43.035Z,1635
2016-05-30T06:36:39.974Z,1630
2016-05-30T06:37:40.133Z,1655
2016-05-30T06:38:39.667Z,1665
2016-05-30T06:39:39.529Z,1680
2016-05-30T06:40:39.532Z,1720
2016-05-30T06:41:39.534Z,1745
2016-05-30T06:42:39.585Z,1770
2016-05-30T06:43:39.728Z,1810
2016-05-30T06:44:39.793Z,1835
2016-05-30T06:45:44.592Z,1835
2016-05-30T06:46:39.782Z,1825
2016-05-30T06:47:39.645Z,1815
2016-05-30T06:48:39.678Z,1835
2016-05-30T06:49:39.682Z,1895
2016-05-30T06:50:39.840Z,1890
2016-05-30T06:51:39.874Z,1850
2016-05-30T06:52:39.784Z,1830
2016-05-30T06:53:39.895Z,1775
2016-05-30T06:54:40.428Z,1750
2016-05-30T06:55:40.339Z,1810
2016-05-30T06:56:39.966Z,1840
2016-05-30T06:57:39.984Z,1920
2016-05-30T06:58:39.987Z,1955
2016-05-30T06:59:39.677Z,2030
2016-05-30T07:00:41.680Z,2060
2016-05-30T07:01:39.901Z,2060
2016-05-30T07:02:40.091Z,2000
2016-05-30T07:03:40.078Z,1960
2016-05-30T07:04:40.081Z,1945
2016-05-30T07:05:40.100Z,1980
2016-05-30T07:06:41.196Z,2040
2016-05-30T07:07:39.996Z,2175
2016-05-30T07:08:40.154Z,2220
2016-05-30T07:09:56.206Z,2180
2016-05-30T07:10:56.241Z,2180
2016-05-30T07:12:40.227Z,2085
2016-05-30T07:13:41.245Z,2050
2016-05-30T07:14:41.015Z,2140
2016-05-30T07:15:42.829Z,2200
2016-05-30T07:16:40.598Z,2210
2016-05-30T07:17:40.210Z,2250
2016-05-30T07:18:40.291Z,2280
2016-05-30T07:19:54.528Z,2250
2016-05-30T07:20:43.593Z,2290
2016-05-30T07:22:09.801Z,2290
2016-05-30T07:22:41.708Z,2305
2016-05-30T07:23:40.820Z,2300
2016-05-30T07:24:40.150Z,2360
2016-05-30T07:25:45.106Z,2390
2016-05-30T07:26:41.312Z,2365
2016-05-30T07:27:40.425Z,2305
2016-05-30T07:28:41.411Z,2245
2016-05-30T07:29:41.227Z,2200
2016-05-30T07:30:44.839Z,2165
2016-05-30T07:31:40.575Z,2245
2016-05-30T07:32:40.922Z,2225
2016-05-30T07:33:40.471Z,2185
2016-05-30T07:34:42.052Z,2230
2016-05-30T07:35:44.633Z,2230
2016-05-30T07:36:40.542Z,2205
2016-05-30T07:37:40.732Z,2230
2016-05-30T07:38:41.610Z,2185
2016-05-30T07:39:41.221Z,2180
2016-05-30T07:40:40.772Z,2265
2016-05-30T07:41:40.790Z,2250
2016-05-30T07:42:40.793Z,2280
2016-05-30T07:43:40.670Z,2305
2016-05-30T07:44:40.674Z,2320
2016-05-30T07:45:40.395Z,2360
2016-05-30T07:46:40.740Z,2355
2016-05-30T07:47:40.759Z,2260
2016-05-30T07:48:40.918Z,2100
2016-05-30T07:49:40.843Z,2040
2016-05-30T07:50:43.142Z,1985
2016-05-30T07:51:41.426Z,2020
2016-05-30T07:52:41.116Z,2035
2016-05-30T07:53:41.009Z,1605
2016-05-30T07:54:41.059Z,985
2016-05-30T07:55:44.078Z,2140
2016-05-30T07:56:41.081Z,2165
2016-05-30T07:57:40.786Z,2170
2016-05-30T07:58:41.133Z,2185
2016-05-30T07:59:40.978Z,2230
2016-05-30T08:00:40.997Z,2295
2016-05-30T08:01:41.031Z,2340
2016-05-30T08:02:40.894Z,2385
2016-05-30T08:03:41.224Z,2355
2016-05-30T08:04:41.258Z,2275
2016-05-30T08:05:41.277Z,2220
2016-05-30T08:06:41.857Z,2210
2016-05-30T08:07:41.547Z,2500
2016-05-30T08:08:41.332Z,2710
2016-05-30T08:09:41.335Z,2760
2016-05-30T08:10:41.227Z,2860
2016-05-30T08:11:41.386Z,2945
2016-05-30T08:12:41.248Z,2935
2016-05-30T08:13:41.266Z,2935
2016-05-30T08:14:41.441Z,2890
2016-05-30T08:15:41.476Z,2835
2016-05-30T08:16:41.338Z,2740
2016-05-30T08:17:41.356Z,2675
2016-05-30T08:18:41.530Z,2360
2016-05-30T08:19:41.548Z,1870
2016-05-30T08:20:41.410Z,1675
2016-05-30T08:21:42.148Z,1640
2016-05-30T08:22:42.041Z,1725
2016-05-30T08:23:41.482Z,1890
2016-05-30T08:24:41.670Z,1990
2016-05-30T08:25:41.533Z,2060
2016-05-30T08:26:41.551Z,2060
2016-05-30T08:27:41.570Z,2070
2016-05-30T08:29:55.794Z,2020
2016-05-30T08:31:42.814Z,1990
2016-05-30T08:32:41.927Z,1975
2016-05-30T08:33:42.336Z,1990
2016-05-30T08:34:41.870Z,1950
2016-05-30T08:35:42.685Z,1945
2016-05-30T08:36:43.297Z,1970
2016-05-30T08:37:42.691Z,2015
2016-05-30T08:38:44.396Z,1945
2016-05-30T08:40:41.996Z,2005
2016-05-30T08:41:42.905Z,2010
2016-05-30T08:42:42.877Z,1955
2016-05-30T08:43:42.065Z,1865
2016-05-30T08:44:45.132Z,1495
2016-05-30T08:45:42.290Z,2045
2016-05-30T08:46:43.684Z,2075
2016-05-30T08:47:42.670Z,2045
2016-05-30T08:48:42.517Z,2015
2016-05-30T08:49:42.520Z,1365
2016-05-30T08:50:42.038Z,1390
2016-05-30T08:51:42.057Z,920
2016-05-30T08:52:42.231Z,800
2016-05-30T08:53:43.764Z,810
2016-05-30T08:54:42.361Z,830
2016-05-30T08:55:43.473Z,860
2016-05-30T08:56:43.382Z,900
2016-05-30T08:57:43.104Z,880
2016-05-30T08:58:42.935Z,815
2016-05-30T08:59:42.687Z,720
2016-05-30T09:00:42.377Z,665
2016-05-30T09:01:42.364Z,665
2016-05-30T09:02:42.398Z,675
2016-05-30T09:03:42.401Z,750
2016-05-30T09:04:42.264Z,830
2016-05-30T09:05:42.422Z,825
2016-05-30T09:06:42.644Z,775
2016-05-30T09:07:43.052Z,680
2016-05-30T09:08:42.509Z,625
2016-05-30T09:09:42.324Z,545
2016-05-30T09:10:42.498Z,485
2016-05-30T09:11:42.516Z,460
2016-05-30T09:12:42.379Z,445
2016-05-30T09:13:42.538Z,445
2016-05-30T09:14:42.399Z,450
2016-05-30T09:15:42.558Z,475
2016-05-30T09:16:42.264Z,515
2016-05-30T09:17:42.579Z,545
2016-05-30T09:18:42.598Z,580
2016-05-30T09:19:42.460Z,610
2016-05-30T09:20:42.635Z,635
2016-05-30T09:21:43.090Z,640
2016-05-30T09:22:42.937Z,630
2016-05-30T09:23:42.658Z,600
2016-05-30T09:24:42.676Z,570
2016-05-30T09:25:42.695Z,540
2016-05-30T09:26:42.745Z,515
2016-05-30T09:27:42.544Z,475
2016-05-30T09:28:42.561Z,450
2016-05-30T09:29:42.721Z,455
2016-05-30T09:30:42.739Z,470
2016-05-30T09:31:42.742Z,510
2016-05-30T09:32:42.761Z,560
2016-05-30T09:33:42.764Z,610
2016-05-30T09:34:42.797Z,650
2016-05-30T09:35:42.769Z,675
2016-05-30T09:36:43.286Z,675
2016-05-30T09:37:43.540Z,690
2016-05-30T09:38:42.511Z,720
2016-05-30T09:39:42.826Z,770
2016-05-30T09:40:42.844Z,810
2016-05-30T09:41:42.691Z,840
2016-05-30T09:42:42.849Z,810
2016-05-30T09:43:42.853Z,740
2016-05-30T09:44:42.715Z,695
2016-05-30T09:45:42.873Z,625
2016-05-30T09:46:42.908Z,625
2016-05-30T09:48:58.756Z,645
2016-05-30T09:49:43.432Z,650
2016-05-30T09:50:42.934Z,625
2016-05-30T09:51:43.874Z,555
2016-05-30T09:52:44.329Z,545
2016-05-30T09:53:42.817Z,570
2016-05-30T09:54:42.991Z,605
2016-05-30T09:55:42.978Z,620
2016-05-30T09:56:42.997Z,660
2016-05-30T09:57:58.484Z,665
2016-05-30T09:59:11.380Z,595
2016-05-30T09:59:43.020Z,575
2016-05-30T10:00:43.539Z,555
2016-05-30T10:01:44.042Z,585
2016-05-30T10:02:43.450Z,610
2016-05-30T10:03:45.875Z,620
2016-05-30T10:04:43.097Z,640
2016-05-30T10:05:44.506Z,670
2016-05-30T10:06:43.992Z,700
2016-05-30T10:07:44.073Z,755
2016-05-30T10:08:43.670Z,770
2016-05-30T10:09:43.126Z,775
2016-05-30T10:10:43.144Z,760
2016-05-30T10:11:42.991Z,735
2016-05-30T10:12:43.994Z,715
2016-05-30T10:13:43.293Z,755
2016-05-30T10:14:44.342Z,780
2016-05-30T10:15:43.189Z,805
2016-05-30T10:16:44.004Z,815
2016-05-30T10:17:43.616Z,795
2016-05-30T10:18:43.524Z,785
2016-05-30T10:19:43.074Z,770
2016-05-30T10:20:43.233Z,710
2016-05-30T10:21:43.517Z,655
2016-05-30T10:22:43.863Z,620
2016-05-30T10:23:43.288Z,600
2016-05-30T10:24:43.338Z,575
2016-05-30T10:25:43.481Z,600
2016-05-30T10:26:43.312Z,580
2016-05-30T10:27:43.174Z,550
2016-05-30T10:28:43.161Z,535
2016-05-30T10:29:43.320Z,530
2016-05-30T10:30:43.198Z,515
2016-05-30T10:31:43.247Z,500
2016-05-30T10:32:43.203Z,495
2016-05-30T10:33:43.378Z,505
2016-05-30T10:34:43.395Z,525
2016-05-30T10:35:43.227Z,540
2016-05-30T10:36:44.167Z,550
2016-05-30T10:37:43.139Z,545
2016-05-30T10:38:43.422Z,540
2016-05-30T10:39:43.519Z,515
2016-05-30T10:40:43.286Z,520
2016-05-30T10:41:43.306Z,535
2016-05-30T10:42:43.464Z,560
2016-05-30T10:43:43.483Z,565
2016-05-30T10:44:43.330Z,530
2016-05-30T10:45:43.332Z,510
2016-05-30T10:46:43.349Z,530
2016-05-30T10:47:43.353Z,545
2016-05-30T10:48:43.527Z,550
2016-05-30T10:49:43.545Z,565
2016-05-30T10:50:43.548Z,590
2016-05-30T10:51:43.849Z,605
2016-05-30T10:52:44.023Z,605
2016-05-30T10:53:43.572Z,600
2016-05-30T10:54:43.591Z,585
2016-05-30T10:55:43.593Z,575
2016-05-30T10:56:43.596Z,550
2016-05-30T10:57:43.458Z,545
2016-05-30T10:58:43.476Z,550
2016-05-30T10:59:43.635Z,590
2016-05-30T11:00:43.637Z,600
2016-05-30T11:01:43.500Z,635
2016-05-30T11:02:43.659Z,685
2016-05-30T11:03:43.661Z,730
2016-05-30T11:04:43.680Z,720
2016-05-30T11:05:43.698Z,650
2016-05-30T11:06:59.075Z,605
2016-05-30T11:07:59.594Z,605
2016-05-30T11:08:44.362Z,610
2016-05-30T11:09:44.083Z,605
2016-05-30T11:10:43.789Z,610
2016-05-30T11:11:44.261Z,635
2016-05-30T11:12:43.983Z,650
2016-05-30T11:13:43.782Z,655
2016-05-30T11:14:43.628Z,635
2016-05-30T11:15:43.803Z,620
2016-05-30T11:16:44.696Z,575
2016-05-30T11:17:44.418Z,510
2016-05-30T11:18:43.827Z,435
2016-05-30T11:19:43.830Z,360
2016-05-30T11:20:43.941Z,305
2016-05-30T11:21:43.397Z,260
2016-05-30T11:22:46.541Z,230
2016-05-30T11:23:46.028Z,220
2016-05-30T11:24:43.734Z,200
2016-05-30T11:25:44.565Z,190
2016-05-30T11:26:44.785Z,185
2016-05-30T11:27:44.242Z,185
2016-05-30T11:28:43.931Z,180
2016-05-30T11:29:43.935Z,180
2016-05-30T11:30:43.796Z,180
2016-05-30T11:31:44.628Z,185
2016-05-30T11:33:01.551Z,195
2016-05-30T11:33:45.070Z,200
2016-05-30T11:34:43.698Z,215
2016-05-30T11:35:43.842Z,235
2016-05-30T11:36:45.391Z,270
2016-05-30T11:37:44.159Z,310
2016-05-30T11:38:43.849Z,355
2016-05-30T11:39:44.025Z,400
2016-05-30T11:40:43.870Z,460
2016-05-30T11:41:43.872Z,515
2016-05-30T11:42:44.063Z,540
2016-05-30T11:43:43.894Z,555
2016-05-30T11:44:43.897Z,585
2016-05-30T11:45:43.930Z,620
2016-05-30T11:46:44.110Z,650
2016-05-30T11:47:43.680Z,665
2016-05-30T11:48:44.156Z,700
2016-05-30T11:49:43.725Z,735
2016-05-30T11:50:44.223Z,780
2016-05-30T11:51:44.577Z,805
2016-05-30T11:52:45.571Z,840
2016-05-30T11:53:44.253Z,865
2016-05-30T11:54:44.279Z,870
2016-05-30T11:55:43.972Z,845
2016-05-30T11:56:44.133Z,810
2016-05-30T11:57:44.311Z,775
2016-05-30T11:58:44.332Z,755
2016-05-30T11:59:44.338Z,735
2016-05-30T12:00:44.342Z,705
2016-05-30T12:01:44.362Z,680
2016-05-30T12:02:44.100Z,670
2016-05-30T12:03:44.370Z,660
2016-05-30T12:04:44.388Z,650
2016-05-30T12:05:44.252Z,660
2016-05-30T12:06:45.911Z,660
2016-05-30T12:07:45.758Z,655
2016-05-30T12:08:44.276Z,655
2016-05-30T12:09:44.310Z,650
2016-05-30T12:10:44.282Z,665
2016-05-30T12:11:44.457Z,680
2016-05-30T12:12:44.459Z,700
2016-05-30T12:13:44.478Z,735
2016-05-30T12:14:44.495Z,775
2016-05-30T12:15:44.342Z,795
2016-05-30T12:16:44.361Z,810
2016-05-30T12:17:44.364Z,805
2016-05-30T12:18:44.523Z,810
2016-05-30T12:19:44.556Z,785
2016-05-30T12:20:44.544Z,760
2016-05-30T12:21:44.687Z,745
2016-05-30T12:22:44.361Z,720
2016-05-30T12:23:44.270Z,705
2016-05-30T12:24:44.289Z,710
2016-05-30T12:25:45.510Z,710
2016-05-30T12:26:46.622Z,730
2016-05-30T12:27:44.625Z,750
2016-05-30T12:28:44.627Z,765
2016-05-30T12:29:45.646Z,775
2016-05-30T12:30:45.149Z,780
2016-05-30T12:31:44.870Z,775
2016-05-30T12:32:44.669Z,785
2016-05-30T12:33:44.532Z,795
2016-05-30T12:34:44.706Z,795
2016-05-30T12:35:47.834Z,755
2016-05-30T12:36:46.790Z,730
2016-05-30T12:37:45.793Z,705
2016-05-30T12:38:44.592Z,685
2016-05-30T12:39:44.766Z,655
2016-05-30T12:40:45.566Z,640
2016-05-30T12:41:45.693Z,630
2016-05-30T12:42:46.290Z,610
2016-05-30T12:43:45.731Z,605
2016-05-30T12:44:45.046Z,625
2016-05-30T12:45:45.579Z,650
2016-05-30T12:46:45.364Z,690
2016-05-30T12:47:44.881Z,725
2016-05-30T12:48:44.713Z,745
2016-05-30T12:49:44.715Z,740
2016-05-30T12:50:46.765Z,720
2016-05-30T12:51:47.017Z,690
2016-05-30T12:52:45.036Z,655
2016-05-30T12:53:46.258Z,630
2016-05-30T12:54:45.916Z,595
2016-05-30T12:55:45.325Z,580
2016-05-30T12:56:44.969Z,565
2016-05-30T12:57:44.956Z,550
2016-05-30T12:58:44.974Z,565
2016-05-30T12:59:44.977Z,595
2016-05-30T13:00:44.869Z,645
2016-05-30T13:01:45.013Z,715
2016-05-30T13:02:44.860Z,760
2016-05-30T13:03:45.034Z,780
2016-05-30T13:04:45.068Z,800
2016-05-30T13:05:45.055Z,790
2016-05-30T13:06:44.777Z,770
2016-05-30T13:07:45.858Z,770
2016-05-30T13:08:45.094Z,770
2016-05-30T13:09:45.097Z,755
2016-05-30T13:10:45.116Z,730
2016-05-30T13:11:45.118Z,705
2016-05-30T13:12:44.980Z,670
2016-05-30T13:13:45.029Z,635
2016-05-30T13:14:45.220Z,600
2016-05-30T13:15:44.863Z,575
2016-05-30T13:16:45.178Z,575
2016-05-30T13:17:45.181Z,590
2016-05-30T13:18:45.043Z,605
2016-05-30T13:19:45.233Z,590
2016-05-30T13:20:45.236Z,530
2016-05-30T13:21:45.583Z,460
2016-05-30T13:22:45.601Z,395
2016-05-30T13:23:45.103Z,365
2016-05-30T13:24:44.950Z,330
2016-05-30T13:25:45.125Z,305
2016-05-30T13:26:45.283Z,285
2016-05-30T13:27:45.302Z,270
2016-05-30T13:28:45.320Z,265
2016-05-30T13:29:45.166Z,265
2016-05-30T13:30:45.169Z,265
2016-05-30T13:31:45.360Z,260
2016-05-30T13:32:45.346Z,255
2016-05-30T13:33:45.366Z,265
2016-05-30T13:34:45.383Z,275
2016-05-30T13:35:45.385Z,290
2016-05-30T13:36:45.639Z,305
2016-05-30T13:37:45.501Z,315
2016-05-30T13:38:45.425Z,325
2016-05-30T13:39:45.272Z,325
2016-05-30T13:40:45.290Z,330
2016-05-30T13:41:45.137Z,325
2016-05-30T13:42:45.452Z,330
2016-05-30T13:43:45.470Z,330
2016-05-30T13:44:47.129Z,320
2016-05-30T13:45:48.398Z,315
2016-05-30T13:46:46.087Z,310
2016-05-30T13:47:45.809Z,300
2016-05-30T13:48:45.514Z,300
2016-05-30T13:49:45.862Z,305
2016-05-30T13:50:45.676Z,310
2016-05-30T13:51:45.820Z,315
2016-05-30T13:52:45.744Z,315
2016-05-30T13:53:45.559Z,310
2016-05-30T13:55:02.750Z,330
2016-05-30T13:56:01.050Z,360
2016-05-30T13:56:47.333Z,385
2016-05-30T13:57:45.695Z,415
2016-05-30T13:58:46.542Z,440
2016-05-30T13:59:46.310Z,460